createdAt,value
2022-09-02T00:00:52.571Z,0.09
2022-09-02T00:01:53.203Z,0.09
2022-09-02T00:02:52.862Z,0.09
2022-09-02T00:03:53.527Z,0.09
2022-09-02T00:04:55.717Z,0.09
2022-09-02T00:05:55.423Z,0.09
2022-09-02T00:06:54.879Z,0.09
2022-09-02T00:07:56.623Z,0.09
2022-09-02T00:08:57.316Z,0.09
2022-09-02T00:09:58.004Z,0.09
2022-09-02T00:10:58.649Z,0.09
2022-09-02T00:11:58.503Z,0.09
2022-09-02T00:13:00.036Z,0.09
2022-09-02T00:14:00.552Z,0.09
2022-09-02T00:15:01.363Z,0.09
2022-09-02T00:16:01.932Z,0.09
2022-09-02T00:17:01.610Z,0.09
2022-09-02T00:18:01.789Z,0.09
2022-09-02T00:19:02.053Z,0.09
2022-09-02T00:20:03.769Z,0.09
2022-09-02T00:20:12.340Z,0.09
2022-09-02T00:21:13.818Z,0.09
2022-09-02T00:22:14.218Z,0.09
2022-09-02T00:23:15.022Z,0.09
2022-09-02T00:24:15.116Z,0.09
2022-09-02T00:25:15.825Z,0.09
2022-09-02T00:26:16.146Z,0.09
2022-09-02T00:27:16.905Z,0.09
2022-09-02T00:28:17.428Z,0.09
2022-09-02T00:29:16.722Z,0.09
2022-09-02T00:30:17.996Z,0.09
2022-09-02T00:31:18.465Z,0.09
2022-09-02T00:32:17.672Z,0.09
2022-09-02T00:33:19.678Z,0.09
2022-09-02T00:34:18.855Z,0.09
2022-09-02T00:35:20.405Z,0.09
2022-09-02T00:36:20.926Z,0.09
2022-09-02T00:37:21.763Z,0.09
2022-09-02T00:38:21.108Z,0.06
2022-09-02T00:39:22.435Z,0.09
2022-09-02T00:39:31.905Z,0.09
2022-09-02T00:40:33.465Z,0.09
2022-09-02T00:41:33.177Z,0.09
2022-09-02T00:42:34.720Z,0.09
2022-09-02T00:43:35.333Z,0.09
2022-09-02T00:44:35.522Z,0.09
2022-09-02T00:45:35.757Z,0.09
2022-09-02T00:46:35.227Z,0.09
2022-09-02T00:47:36.410Z,0.09
2022-09-02T00:48:36.371Z,0.09
2022-09-02T00:49:37.961Z,0.09
2022-09-02T00:50:38.262Z,0.09
2022-09-02T00:51:38.894Z,0.09
2022-09-02T00:52:39.172Z,0.09
2022-09-02T00:53:39.822Z,0.09
2022-09-02T00:54:40.153Z,0.09
2022-09-02T00:55:40.296Z,0.09
2022-09-02T00:56:41.156Z,0.09
2022-09-02T00:57:41.693Z,0.09
2022-09-02T00:58:42.658Z,0.09
2022-09-02T00:58:51.231Z,0.09
2022-09-02T00:59:52.476Z,0.09
2022-09-02T01:00:53.061Z,0.09
2022-09-02T01:01:52.450Z,0.09
2022-09-02T01:02:53.065Z,0.09
2022-09-02T01:03:53.561Z,0.09
2022-09-02T01:04:54.930Z,0.09
2022-09-02T01:05:55.631Z,0.09
2022-09-02T01:06:56.571Z,0.09
2022-09-02T01:07:57.169Z,0.09
2022-09-02T01:08:57.696Z,0.09
2022-09-02T01:09:58.087Z,0.09
2022-09-02T01:10:58.176Z,0.09
2022-09-02T01:11:59.173Z,0.09
2022-09-02T01:12:59.435Z,0.09
2022-09-02T01:14:00.071Z,0.09
2022-09-02T01:15:00.425Z,0.09
2022-09-02T01:16:00.607Z,0.09
2022-09-02T01:16:59.917Z,0.09
2022-09-02T01:18:01.331Z,0.09
2022-09-02T01:18:09.982Z,0.09
2022-09-02T01:19:11.798Z,0.09
2022-09-02T01:20:12.397Z,0.09
2022-09-02T01:21:12.895Z,0.09
2022-09-02T01:22:13.539Z,0.09
2022-09-02T01:23:13.613Z,0.09
2022-09-02T01:24:13.298Z,0.09
2022-09-02T01:25:14.720Z,0.09
2022-09-02T01:26:14.832Z,0.09
2022-09-02T01:27:15.648Z,0.09
2022-09-02T01:28:16.373Z,0.09
2022-09-02T01:29:16.638Z,0.09
2022-09-02T01:30:17.100Z,0.09
2022-09-02T01:31:17.473Z,0.09
2022-09-02T01:32:16.671Z,0.09
2022-09-02T01:33:18.000Z,0.13
2022-09-02T01:34:17.262Z,0.09
2022-09-02T01:35:18.538Z,0.09
2022-09-02T01:36:18.893Z,0.09
2022-09-02T01:37:19.613Z,0.09
2022-09-02T01:37:28.259Z,0.09
2022-09-02T01:38:28.856Z,0.09
2022-09-02T01:39:30.171Z,0.09
2022-09-02T01:40:31.001Z,0.09
2022-09-02T01:41:30.178Z,0.09
2022-09-02T01:42:31.441Z,0.09
2022-09-02T01:43:31.915Z,0.09
2022-09-02T01:44:32.360Z,0.09
2022-09-02T01:45:32.387Z,0.09
2022-09-02T01:46:33.342Z,0.09
2022-09-02T01:47:32.670Z,0.09
2022-09-02T01:48:33.883Z,0.09
2022-09-02T01:49:35.327Z,0.09
2022-09-02T01:50:33.961Z,0.09
2022-09-02T01:51:35.784Z,0.09
2022-09-02T01:52:36.353Z,0.09
2022-09-02T01:53:36.629Z,0.09
2022-09-02T01:54:37.413Z,0.09
2022-09-02T01:55:36.907Z,0.09
2022-09-02T01:56:38.221Z,0.09
2022-09-02T01:56:46.820Z,0.09
2022-09-02T01:57:48.235Z,0.09
2022-09-02T01:58:48.871Z,0.09
2022-09-02T01:59:49.236Z,0.09
2022-09-02T02:00:50.028Z,0.09
2022-09-02T02:01:49.742Z,0.09
2022-09-02T02:02:50.087Z,0.09
2022-09-02T02:03:50.825Z,0.09
2022-09-02T02:04:52.025Z,0.09
2022-09-02T02:05:52.986Z,0.09
2022-09-02T02:06:53.460Z,0.09
2022-09-02T02:07:52.960Z,0.09
2022-09-02T02:08:54.161Z,0.09
2022-09-02T02:09:55.054Z,0.09
2022-09-02T02:10:54.717Z,0.09
2022-09-02T02:11:56.290Z,0.09
2022-09-02T02:12:56.827Z,0.09
2022-09-02T02:13:57.217Z,0.09
2022-09-02T02:14:57.664Z,0.09
2022-09-02T02:15:57.557Z,0.09
2022-09-02T02:16:58.328Z,0.09
2022-09-02T02:17:59.220Z,0.09
2022-09-02T02:19:00.326Z,0.09
2022-09-02T02:19:08.923Z,0.09
2022-09-02T02:20:09.256Z,0.09
2022-09-02T02:21:11.034Z,0.09
2022-09-02T02:22:11.119Z,0.09
2022-09-02T02:23:11.679Z,0.09
2022-09-02T02:24:12.352Z,0.09
2022-09-02T02:25:12.792Z,0.09
2022-09-02T02:26:13.472Z,0.09
2022-09-02T02:27:13.586Z,0.09
2022-09-02T02:28:14.235Z,0.09
2022-09-02T02:29:14.388Z,0.09
2022-09-02T02:30:13.986Z,0.09
2022-09-02T02:31:15.783Z,0.09
2022-09-02T02:32:15.308Z,0.09
2022-09-02T02:33:17.161Z,0.09
2022-09-02T02:34:17.510Z,0.09
2022-09-02T02:35:17.819Z,0.09
2022-09-02T02:36:18.280Z,0.09
2022-09-02T02:37:22.145Z,0.09
2022-09-02T02:37:28.070Z,0.09
2022-09-02T02:38:28.061Z,0.09
2022-09-02T02:39:29.034Z,0.09
2022-09-02T02:40:30.961Z,0.09
2022-09-02T02:41:30.601Z,0.09
2022-09-02T02:42:31.948Z,0.09
2022-09-02T02:43:32.677Z,0.09
2022-09-02T02:44:33.005Z,0.09
2022-09-02T02:45:33.633Z,0.09
2022-09-02T02:46:34.373Z,0.09
2022-09-02T02:47:34.212Z,0.09
2022-09-02T02:48:34.292Z,0.09
2022-09-02T02:49:36.025Z,0.09
2022-09-02T02:50:35.363Z,0.09
2022-09-02T02:51:37.184Z,0.09
2022-09-02T02:52:37.883Z,0.09
2022-09-02T02:53:38.559Z,0.09
2022-09-02T02:54:37.799Z,0.09
2022-09-02T02:55:38.129Z,0.09
2022-09-02T02:56:40.003Z,0.06
2022-09-02T02:57:40.812Z,0.09
2022-09-02T02:58:40.793Z,0.09
2022-09-02T02:58:49.414Z,0.09
2022-09-02T02:59:49.942Z,0.09
2022-09-02T03:00:50.908Z,0.09
2022-09-02T03:01:51.871Z,0.09
2022-09-02T03:02:52.784Z,0.09
2022-09-02T03:03:52.726Z,0.09
2022-09-02T03:04:54.285Z,0.09
2022-09-02T03:05:53.837Z,0.09
2022-09-02T03:06:54.888Z,0.09
2022-09-02T03:07:55.038Z,0.09
2022-09-02T03:08:55.419Z,0.09
2022-09-02T03:09:54.870Z,0.09
2022-09-02T03:10:55.535Z,0.09
2022-09-02T03:11:56.166Z,0.09
2022-09-02T03:12:57.620Z,0.09
2022-09-02T03:13:58.106Z,0.09
2022-09-02T03:14:59.071Z,0.09
2022-09-02T03:15:59.564Z,0.09
2022-09-02T03:16:59.409Z,0.09
2022-09-02T03:17:59.996Z,0.09
2022-09-02T03:19:01.031Z,0.09
2022-09-02T03:20:01.742Z,0.09
2022-09-02T03:21:02.278Z,0.09
2022-09-02T03:21:11.453Z,0.09
2022-09-02T03:22:13.085Z,0.09
2022-09-02T03:23:14.095Z,0.09
2022-09-02T03:24:13.786Z,0.09
2022-09-02T03:25:14.366Z,0.09
2022-09-02T03:26:14.879Z,0.09
2022-09-02T03:27:15.829Z,0.09
2022-09-02T03:28:17.722Z,0.09
2022-09-02T03:29:18.015Z,0.09
2022-09-02T03:30:18.587Z,0.09
2022-09-02T03:31:19.312Z,0.09
2022-09-02T03:32:19.204Z,0.09
2022-09-02T03:33:20.843Z,0.09
2022-09-02T03:34:20.724Z,0.09
2022-09-02T03:35:22.138Z,0.09
2022-09-02T03:36:22.821Z,0.09
2022-09-02T03:37:23.007Z,0.09
2022-09-02T03:38:23.627Z,0.09
2022-09-02T03:39:23.999Z,0.09
2022-09-02T03:40:24.470Z,0.09
2022-09-02T03:41:23.601Z,0.09
2022-09-02T03:42:25.453Z,0.09
2022-09-02T03:42:36.083Z,0.09
2022-09-02T03:43:36.576Z,0.09
2022-09-02T03:44:38.351Z,0.09
2022-09-02T03:45:39.389Z,0.09
2022-09-02T03:46:38.596Z,0.09
2022-09-02T03:47:39.585Z,0.09
2022-09-02T03:48:39.862Z,0.09
2022-09-02T03:49:40.704Z,0.09
2022-09-02T03:50:41.009Z,0.09
2022-09-02T03:51:42.655Z,0.09
2022-09-02T03:52:43.498Z,0.09
2022-09-02T03:53:42.774Z,0.09
2022-09-02T03:54:43.774Z,0.09
2022-09-02T03:55:44.451Z,0.09
2022-09-02T03:56:43.813Z,0.09
2022-09-02T03:57:44.200Z,0.09
2022-09-02T03:58:45.895Z,0.09
2022-09-02T03:59:45.376Z,0.13
2022-09-02T04:00:47.160Z,0.13
2022-09-02T04:01:46.850Z,0.13
2022-09-02T04:02:47.434Z,0.13
2022-09-02T04:03:47.898Z,0.13
2022-09-02T04:04:49.300Z,0.13
2022-09-02T04:05:50.165Z,0.13
2022-09-02T04:05:58.785Z,0.09
2022-09-02T04:06:59.594Z,0.09
2022-09-02T04:08:00.877Z,0.09
2022-09-02T04:09:01.194Z,0.09
2022-09-02T04:10:00.449Z,0.13
2022-09-02T04:11:01.765Z,0.13
2022-09-02T04:12:02.440Z,0.13
2022-09-02T04:13:02.599Z,0.13
2022-09-02T04:14:02.803Z,0.13
2022-09-02T04:15:03.634Z,0.13
2022-09-02T04:16:03.107Z,0.09
2022-09-02T04:17:03.849Z,0.13
2022-09-02T04:18:04.153Z,0.13
2022-09-02T04:19:04.153Z,0.13
2022-09-02T04:20:04.450Z,0.09
2022-09-02T04:21:06.138Z,0.13
2022-09-02T04:22:07.095Z,0.13
2022-09-02T04:23:07.393Z,0.13
2022-09-02T04:24:07.524Z,0.13
2022-09-02T04:25:07.671Z,0.13
2022-09-02T04:26:08.578Z,0.13
2022-09-02T04:27:08.100Z,0.13
2022-09-02T04:27:16.715Z,0.13
2022-09-02T04:28:17.095Z,0.13
2022-09-02T04:29:52.982Z,0.13
2022-09-02T04:30:53.731Z,0.13
2022-09-02T04:31:53.309Z,0.13
2022-09-02T04:32:54.926Z,0.13
2022-09-02T04:34:36.847Z,0.13
2022-09-02T04:35:40.938Z,0.13
2022-09-02T04:38:12.696Z,0.13
2022-09-02T04:39:34.393Z,0.13
2022-09-02T04:40:35.222Z,0.16
2022-09-02T04:41:34.824Z,0.16
2022-09-02T04:42:36.126Z,0.16
2022-09-02T04:43:35.677Z,0.16
2022-09-02T04:44:36.935Z,0.13
2022-09-02T04:45:37.316Z,0.16
2022-09-02T04:46:37.576Z,0.16
2022-09-02T04:47:37.323Z,0.16
2022-09-02T04:48:38.806Z,0.16
2022-09-02T04:49:38.269Z,0.16
2022-09-02T04:50:39.710Z,0.16
2022-09-02T04:50:49.386Z,0.16
2022-09-02T04:51:49.628Z,0.16
2022-09-02T04:52:51.306Z,0.16
2022-09-02T04:53:52.006Z,0.16
2022-09-02T04:54:51.127Z,0.16
2022-09-02T04:55:57.787Z,0.16
2022-09-02T04:56:52.337Z,0.16
2022-09-02T04:57:53.777Z,0.16
2022-09-02T04:58:53.783Z,0.23
2022-09-02T04:59:54.177Z,0.16
2022-09-02T05:00:54.751Z,0.23
2022-09-02T05:01:54.223Z,0.23
2022-09-02T05:02:55.082Z,0.23
2022-09-02T05:04:06.711Z,0.27
2022-09-02T05:05:07.825Z,0.27
2022-09-02T05:06:06.799Z,0.27
2022-09-02T05:08:21.077Z,0.27
2022-09-02T05:13:03.268Z,0.27
2022-09-02T05:14:02.612Z,0.27
2022-09-02T05:15:16.454Z,0.27
2022-09-02T05:16:27.449Z,0.27
2022-09-02T05:19:14.660Z,0.27
2022-09-02T05:20:56.308Z,0.27
2022-09-02T05:21:04.914Z,0.27
2022-09-02T05:22:05.081Z,0.27
2022-09-02T05:23:15.244Z,0.27
2022-09-02T05:24:15.067Z,0.31
2022-09-02T05:25:16.761Z,0.31
2022-09-02T05:26:16.972Z,0.31
2022-09-02T05:27:17.403Z,0.31
2022-09-02T05:28:16.822Z,0.31
2022-09-02T05:29:18.310Z,0.31
2022-09-02T05:30:18.905Z,0.31
2022-09-02T05:31:19.932Z,0.31
2022-09-02T05:32:19.626Z,0.31
2022-09-02T05:33:21.042Z,0.31
2022-09-02T05:34:21.740Z,0.31
2022-09-02T05:35:21.831Z,0.34
2022-09-02T05:36:22.019Z,0.31
2022-09-02T05:37:22.645Z,0.31
2022-09-02T05:38:22.445Z,0.34
2022-09-02T05:39:24.320Z,0.34
2022-09-02T05:40:23.947Z,0.34
2022-09-02T05:41:24.368Z,0.34
2022-09-02T05:41:33.028Z,0.34
2022-09-02T05:42:33.964Z,0.34
2022-09-02T05:43:34.247Z,0.34
2022-09-02T05:44:34.832Z,0.34
2022-09-02T05:45:36.890Z,0.34
2022-09-02T05:46:35.997Z,0.34
2022-09-02T05:47:36.878Z,0.34
2022-09-02T05:48:38.065Z,0.34
2022-09-02T05:49:37.332Z,0.34
2022-09-02T05:50:39.322Z,0.34
2022-09-02T05:51:40.244Z,0.34
2022-09-02T05:52:40.827Z,0.34
2022-09-02T05:53:41.596Z,0.34
2022-09-02T05:54:41.081Z,0.38
2022-09-02T05:55:42.537Z,0.38
2022-09-02T05:56:45.229Z,0.45
2022-09-02T05:57:42.724Z,0.55
2022-09-02T05:58:43.997Z,0.59
2022-09-02T05:59:44.318Z,0.66
2022-09-02T06:00:44.241Z,0.66
2022-09-02T06:01:49.858Z,0.70
2022-09-02T06:02:48.907Z,0.70
2022-09-02T06:02:57.536Z,0.70
2022-09-02T06:03:58.213Z,0.66
2022-09-02T06:05:00.079Z,0.70
2022-09-02T06:06:04.511Z,0.66
2022-09-02T06:09:51.231Z,0.73
2022-09-02T06:11:19.544Z,0.73
2022-09-02T06:12:19.803Z,0.66
2022-09-02T06:13:20.188Z,0.66
2022-09-02T06:14:19.573Z,0.66
2022-09-02T06:15:21.016Z,0.59
2022-09-02T06:16:21.341Z,0.66
2022-09-02T06:17:20.949Z,0.59
2022-09-02T06:18:21.467Z,0.66
2022-09-02T06:19:21.832Z,0.59
2022-09-02T06:20:21.872Z,0.66
2022-09-02T06:21:23.022Z,0.59
2022-09-02T06:22:22.403Z,0.59
2022-09-02T06:23:23.648Z,0.45
2022-09-02T06:24:22.626Z,0.48
2022-09-02T06:25:23.781Z,0.55
2022-09-02T06:26:23.010Z,0.59
2022-09-02T06:27:23.187Z,0.59
2022-09-02T06:27:31.821Z,0.59
2022-09-02T06:28:32.408Z,0.59
2022-09-02T06:29:33.963Z,0.59
2022-09-02T06:30:34.284Z,0.59
2022-09-02T06:31:35.082Z,0.66
2022-09-02T06:32:34.356Z,0.59
2022-09-02T06:33:35.628Z,0.55
2022-09-02T06:34:35.137Z,0.59
2022-09-02T06:35:36.723Z,0.66
2022-09-02T06:36:37.369Z,0.66
2022-09-02T06:37:37.462Z,0.70
2022-09-02T06:38:37.507Z,0.70
2022-09-02T06:39:37.779Z,0.70
2022-09-02T06:40:38.045Z,0.77
2022-09-02T06:41:37.260Z,0.77
2022-09-02T06:42:38.960Z,0.73
2022-09-02T06:43:42.692Z,0.77
2022-09-02T06:44:39.122Z,0.77
2022-09-02T06:45:40.430Z,0.80
2022-09-02T06:46:39.736Z,0.77
2022-09-02T06:46:54.311Z,0.77
2022-09-02T06:47:51.945Z,0.80
2022-09-02T06:48:52.658Z,0.80
2022-09-02T06:49:53.647Z,0.84
2022-09-02T06:50:53.332Z,0.84
2022-09-02T06:51:53.577Z,0.88
2022-09-02T06:52:55.027Z,0.88
2022-09-02T06:53:55.676Z,0.88
2022-09-02T06:54:56.015Z,0.91
2022-09-02T06:55:56.136Z,0.91
2022-09-02T06:56:57.103Z,0.95
2022-09-02T06:57:56.832Z,0.95
2022-09-02T06:58:58.118Z,0.95
2022-09-02T07:00:01.864Z,0.95
2022-09-02T07:00:57.787Z,0.88
2022-09-02T07:01:57.978Z,0.77
2022-09-02T07:02:57.927Z,0.77
2022-09-02T07:04:02.180Z,0.66
2022-09-02T07:04:58.447Z,0.80
2022-09-02T07:05:58.419Z,0.84
2022-09-02T07:07:00.036Z,0.84
2022-09-02T07:07:59.332Z,0.84
2022-09-02T07:08:07.969Z,0.84
2022-09-02T07:09:08.002Z,0.84
2022-09-02T07:10:09.187Z,0.77
2022-09-02T07:11:08.399Z,0.80
2022-09-02T07:12:08.846Z,0.84
2022-09-02T07:13:10.792Z,0.88
2022-09-02T07:14:09.983Z,0.91
2022-09-02T07:15:10.425Z,0.77
2022-09-02T07:16:10.996Z,0.88
2022-09-02T07:17:11.726Z,0.91
2022-09-02T07:18:12.127Z,0.95
2022-09-02T07:19:17.241Z,0.98
2022-09-02T07:20:13.193Z,1.02
2022-09-02T07:21:13.754Z,1.12
2022-09-02T07:22:14.617Z,1.16
2022-09-02T07:23:14.810Z,1.20
2022-09-02T07:24:14.931Z,1.27
2022-09-02T07:25:15.410Z,1.27
2022-09-02T07:26:15.911Z,1.27
2022-09-02T07:27:17.148Z,1.16
2022-09-02T07:28:17.508Z,1.30
2022-09-02T07:29:18.330Z,1.30
2022-09-02T07:30:19.185Z,1.34
2022-09-02T07:31:19.640Z,1.34
2022-09-02T07:32:18.853Z,1.34
2022-09-02T07:33:20.492Z,1.34
2022-09-02T07:33:29.378Z,1.34
2022-09-02T07:34:30.657Z,1.30
2022-09-02T07:35:30.890Z,1.34
2022-09-02T07:36:31.581Z,1.37
2022-09-02T07:37:31.676Z,1.37
2022-09-02T07:38:30.934Z,1.37
2022-09-02T07:39:31.122Z,1.34
2022-09-02T07:40:32.402Z,1.34
2022-09-02T07:41:31.754Z,1.30
2022-09-02T07:42:32.857Z,1.23
2022-09-02T07:43:32.992Z,1.20
2022-09-02T07:44:33.725Z,1.12
2022-09-02T07:45:34.068Z,1.09
2022-09-02T07:46:33.853Z,1.16
2022-09-02T07:47:35.111Z,1.23
2022-09-02T07:48:34.692Z,1.23
2022-09-02T07:50:35.660Z,1.23
2022-09-02T07:51:37.043Z,1.27
2022-09-02T07:52:36.490Z,1.23
2022-09-02T07:53:38.478Z,1.27
2022-09-02T07:53:49.167Z,1.30
2022-09-02T07:54:50.624Z,1.27
2022-09-02T07:55:49.730Z,1.30
2022-09-02T07:56:51.485Z,1.20
2022-09-02T07:57:50.799Z,1.27
2022-09-02T07:58:51.407Z,1.30
2022-09-02T07:59:53.235Z,1.27
2022-09-02T08:00:53.494Z,1.37
2022-09-02T08:01:52.475Z,1.23
2022-09-02T08:02:54.022Z,1.30
2022-09-02T08:03:53.625Z,1.27
2022-09-02T08:04:55.540Z,1.27
2022-09-02T08:05:56.061Z,1.34
2022-09-02T08:06:56.824Z,1.34
2022-09-02T08:07:57.191Z,1.34
2022-09-02T08:08:57.377Z,1.37
2022-09-02T08:09:58.238Z,1.37
2022-09-02T08:10:57.987Z,1.37
2022-09-02T08:11:58.607Z,1.30
2022-09-02T08:13:00.004Z,1.34
2022-09-02T08:14:00.523Z,1.37
2022-09-02T08:15:00.450Z,1.52
2022-09-02T08:16:32.683Z,1.41
2022-09-02T08:17:33.243Z,1.41
2022-09-02T08:18:34.952Z,1.41
2022-09-02T08:19:34.398Z,1.41
2022-09-02T08:20:35.232Z,1.41
2022-09-02T08:21:35.325Z,1.44
2022-09-02T08:22:36.877Z,1.44
2022-09-02T08:23:37.726Z,1.44
2022-09-02T08:24:36.883Z,1.41
2022-09-02T08:25:38.300Z,1.52
2022-09-02T08:26:37.539Z,1.52
2022-09-02T08:27:37.866Z,1.44
2022-09-02T08:28:38.346Z,1.44
2022-09-02T08:29:38.721Z,1.44
2022-09-02T08:30:40.307Z,1.52
2022-09-02T08:31:40.465Z,1.44
2022-09-02T08:32:39.952Z,1.52
2022-09-02T08:33:41.626Z,1.52
2022-09-02T08:34:42.002Z,1.55
2022-09-02T08:35:42.749Z,1.52
2022-09-02T08:36:42.823Z,1.55
2022-09-02T08:37:42.010Z,1.55
2022-09-02T08:37:50.945Z,1.55
2022-09-02T08:38:51.667Z,1.52
2022-09-02T08:39:53.080Z,1.52
2022-09-02T08:40:53.550Z,1.69
2022-09-02T08:41:52.694Z,1.59
2022-09-02T08:42:52.868Z,1.55
2022-09-02T08:43:54.176Z,1.62
2022-09-02T08:44:54.752Z,1.62
2022-09-02T08:45:54.554Z,1.62
2022-09-02T08:46:54.635Z,1.59
2022-09-02T08:47:55.159Z,1.62
2022-09-02T08:48:55.398Z,1.62
2022-09-02T08:49:56.787Z,1.62
2022-09-02T08:50:57.654Z,1.66
2022-09-02T08:52:00.866Z,1.66
2022-09-02T08:52:58.060Z,1.66
2022-09-02T08:53:58.525Z,1.66
2022-09-02T08:54:59.206Z,1.66
2022-09-02T08:56:00.765Z,1.80
2022-09-02T08:57:01.660Z,1.44
2022-09-02T08:58:02.281Z,1.80
2022-09-02T08:59:01.345Z,1.44
2022-09-02T08:59:10.062Z,1.66
2022-09-02T09:00:10.958Z,1.30
2022-09-02T09:01:11.107Z,1.66
2022-09-02T09:02:11.385Z,1.69
2022-09-02T09:03:11.942Z,1.73
2022-09-02T09:04:12.648Z,1.73
2022-09-02T09:05:14.485Z,1.69
2022-09-02T09:06:15.031Z,1.77
2022-09-02T09:07:15.696Z,1.69
2022-09-02T09:08:15.964Z,1.77
2022-09-02T09:09:15.029Z,1.69
2022-09-02T09:10:16.659Z,1.69
2022-09-02T09:11:16.848Z,1.73
2022-09-02T09:12:16.666Z,1.73
2022-09-02T09:13:18.323Z,1.77
2022-09-02T09:14:18.562Z,1.66
2022-09-02T09:15:19.347Z,1.73
2022-09-02T09:16:19.863Z,1.77
2022-09-02T09:17:19.587Z,1.77
2022-09-02T09:18:20.912Z,1.77
2022-09-02T09:19:20.442Z,1.37
2022-09-02T09:19:29.059Z,1.80
2022-09-02T09:20:29.410Z,1.80
2022-09-02T09:21:30.795Z,1.80
2022-09-02T09:22:30.327Z,1.80
2022-09-02T09:23:34.278Z,1.87
2022-09-02T09:24:31.288Z,1.87
2022-09-02T09:25:31.842Z,1.80
2022-09-02T09:26:33.696Z,1.87
2022-09-02T09:27:34.198Z,1.87
2022-09-02T09:28:34.412Z,1.84
2022-09-02T09:29:33.791Z,1.94
2022-09-02T09:30:35.575Z,1.94
2022-09-02T09:31:36.370Z,1.84
2022-09-02T09:32:35.750Z,1.87
2022-09-02T09:33:36.781Z,1.98
2022-09-02T09:34:36.774Z,1.62
2022-09-02T09:35:37.284Z,1.94
2022-09-02T09:36:36.685Z,1.94
2022-09-02T09:37:37.800Z,1.98
2022-09-02T09:38:37.106Z,1.98
2022-09-02T09:39:38.241Z,2.01
2022-09-02T09:40:37.598Z,2.01
2022-09-02T09:40:46.183Z,1.98
2022-09-02T09:41:46.690Z,2.01
2022-09-02T09:42:50.012Z,1.98
2022-09-02T09:43:47.523Z,1.98
2022-09-02T09:44:48.381Z,2.01
2022-09-02T09:45:49.576Z,1.98
2022-09-02T09:46:48.813Z,2.05
2022-09-02T09:47:49.122Z,2.01
2022-09-02T09:48:49.225Z,2.05
2022-09-02T09:49:50.784Z,2.01
2022-09-02T09:50:49.819Z,2.01
2022-09-02T09:51:50.625Z,1.66
2022-09-02T09:52:51.395Z,1.77
2022-09-02T09:53:53.127Z,1.80
2022-09-02T09:54:53.162Z,1.77
2022-09-02T09:55:53.611Z,2.05
2022-09-02T09:56:54.131Z,2.05
2022-09-02T09:57:53.613Z,2.05
2022-09-02T09:58:54.135Z,2.12
2022-09-02T09:59:54.519Z,1.77
2022-09-02T10:00:54.940Z,0.98
2022-09-02T10:01:55.907Z,2.16
2022-09-02T10:02:56.448Z,2.12
2022-09-02T10:03:58.169Z,2.09
2022-09-02T10:04:59.059Z,2.12
2022-09-02T10:05:15.169Z,1.80
2022-09-02T10:06:15.733Z,2.12
2022-09-02T10:07:17.062Z,1.77
2022-09-02T10:08:16.444Z,2.09
2022-09-02T10:09:17.872Z,2.12
2022-09-02T10:10:19.411Z,2.12
2022-09-02T10:11:17.898Z,2.12
2022-09-02T10:12:19.245Z,2.16
2022-09-02T10:14:20.071Z,1.98
2022-09-02T10:15:19.386Z,2.12
2022-09-02T10:16:20.169Z,2.23
2022-09-02T10:17:20.555Z,2.23
2022-09-02T10:18:21.129Z,2.26
2022-09-02T10:19:21.366Z,2.19
2022-09-02T10:20:23.045Z,2.19
2022-09-02T10:21:23.288Z,2.23
2022-09-02T10:22:24.264Z,2.19
2022-09-02T10:23:23.475Z,2.19
2022-09-02T10:24:23.830Z,2.19
2022-09-02T10:25:25.553Z,2.23
2022-09-02T10:27:26.747Z,2.30
2022-09-02T10:27:35.512Z,2.01
2022-09-02T10:28:35.685Z,2.30
2022-09-02T10:29:36.714Z,2.26
2022-09-02T10:30:37.158Z,2.26
2022-09-02T10:31:37.587Z,2.26
2022-09-02T10:32:37.005Z,2.30
2022-09-02T10:33:38.118Z,2.37
2022-09-02T10:34:37.463Z,2.30
2022-09-02T10:35:38.904Z,2.30
2022-09-02T10:36:38.925Z,2.30
2022-09-02T10:37:39.763Z,2.30
2022-09-02T10:38:38.985Z,2.30
2022-09-02T10:39:40.386Z,2.37
2022-09-02T10:40:39.607Z,2.37
2022-09-02T10:41:39.987Z,2.41
2022-09-02T10:42:40.255Z,2.19
2022-09-02T10:43:41.508Z,2.41
2022-09-02T10:44:42.510Z,2.44
2022-09-02T10:45:42.180Z,2.48
2022-09-02T10:46:43.792Z,2.44
2022-09-02T10:47:42.954Z,2.48
2022-09-02T10:48:43.095Z,2.48
2022-09-02T10:48:51.732Z,2.44
2022-09-02T10:49:51.982Z,2.30
2022-09-02T10:50:53.249Z,2.58
2022-09-02T10:51:52.222Z,2.48
2022-09-02T10:52:53.292Z,2.37
2022-09-02T10:53:52.708Z,2.41
2022-09-02T10:54:54.290Z,2.41
2022-09-02T10:55:53.881Z,2.48
2022-09-02T10:56:55.729Z,2.48
2022-09-02T10:57:56.192Z,2.48
2022-09-02T10:58:55.551Z,2.51
2022-09-02T10:59:56.391Z,2.48
2022-09-02T11:00:57.265Z,2.51
2022-09-02T11:01:57.447Z,2.51
2022-09-02T11:02:59.092Z,2.51
2022-09-02T11:03:58.457Z,2.48
2022-09-02T11:04:58.976Z,2.48
2022-09-02T11:06:00.686Z,2.66
2022-09-02T11:07:03.323Z,2.51
2022-09-02T11:08:00.888Z,2.51
2022-09-02T11:09:02.339Z,2.51
2022-09-02T11:10:01.817Z,2.48
2022-09-02T11:11:02.109Z,2.44
2022-09-02T11:12:03.953Z,2.51
2022-09-02T11:12:13.609Z,2.48
2022-09-02T11:13:14.605Z,2.41
2022-09-02T11:14:15.635Z,2.44
2022-09-02T11:15:14.806Z,2.44
2022-09-02T11:16:15.615Z,2.41
2022-09-02T11:17:15.839Z,2.41
2022-09-02T11:18:16.463Z,2.41
2022-09-02T11:19:16.576Z,2.37
2022-09-02T11:20:18.187Z,2.16
2022-09-02T11:21:18.998Z,2.41
2022-09-02T11:22:18.384Z,2.30
2022-09-02T11:23:19.098Z,2.41
2022-09-02T11:24:19.317Z,2.30
2022-09-02T11:25:21.235Z,2.26
2022-09-02T11:26:20.747Z,2.26
2022-09-02T11:27:32.438Z,2.26
2022-09-02T11:28:20.900Z,2.23
2022-09-02T11:29:22.736Z,2.23
2022-09-02T11:30:23.055Z,2.19
2022-09-02T11:31:22.422Z,2.26
2022-09-02T11:32:22.862Z,2.19
2022-09-02T11:33:23.408Z,2.26
2022-09-02T11:34:23.606Z,2.23
2022-09-02T11:35:25.403Z,2.19
2022-09-02T11:36:26.403Z,2.01
2022-09-02T11:37:26.322Z,2.01
2022-09-02T11:37:34.961Z,2.05
2022-09-02T11:38:36.563Z,2.05
2022-09-02T11:39:52.591Z,2.23
2022-09-02T11:40:36.576Z,2.19
2022-09-02T11:41:37.645Z,2.19
2022-09-02T11:42:36.898Z,2.30
2022-09-02T11:43:37.581Z,2.05
2022-09-02T11:44:38.993Z,2.01
2022-09-02T11:45:39.727Z,2.12
2022-09-02T11:46:39.370Z,1.87
2022-09-02T11:47:40.181Z,2.01
2022-09-02T11:48:40.866Z,2.12
2022-09-02T11:49:41.504Z,2.16
2022-09-02T11:50:42.252Z,2.12
2022-09-02T11:51:44.114Z,2.12
2022-09-02T11:52:43.540Z,2.12
2022-09-02T11:53:43.883Z,2.09
2022-09-02T11:54:45.529Z,2.12
2022-09-02T11:55:45.312Z,2.09
2022-09-02T11:56:45.853Z,2.12
2022-09-02T11:57:47.338Z,2.09
2022-09-02T11:58:46.722Z,2.09
2022-09-02T11:59:47.070Z,2.09
2022-09-02T12:00:47.546Z,2.12
2022-09-02T12:01:48.787Z,2.09
2022-09-02T12:01:58.486Z,2.09
2022-09-02T12:03:02.568Z,2.09
2022-09-02T12:04:55.751Z,2.01
2022-09-02T12:05:01.758Z,2.01
2022-09-02T12:06:01.168Z,2.05
2022-09-02T12:07:08.245Z,2.01
2022-09-02T12:08:02.216Z,2.01
2022-09-02T12:09:03.306Z,1.66
2022-09-02T12:10:02.593Z,2.01
2022-09-02T12:11:03.088Z,1.98
2022-09-02T12:12:04.988Z,2.01
2022-09-02T12:13:08.360Z,1.62
2022-09-02T12:14:07.786Z,2.01
2022-09-02T12:15:06.036Z,1.98
2022-09-02T12:16:06.132Z,1.98
2022-09-02T12:17:06.425Z,2.01
2022-09-02T12:18:07.655Z,2.01
2022-09-02T12:19:08.195Z,1.98
2022-09-02T12:20:08.015Z,1.98
2022-09-02T12:21:08.047Z,1.94
2022-09-02T12:22:08.532Z,1.87
2022-09-02T12:23:08.791Z,1.87
2022-09-02T12:24:10.600Z,1.94
2022-09-02T12:25:11.307Z,1.87
2022-09-02T12:26:15.794Z,1.87
2022-09-02T12:26:19.966Z,1.84
2022-09-02T12:27:20.881Z,1.84
2022-09-02T12:28:24.227Z,1.80
2022-09-02T12:29:21.282Z,1.87
2022-09-02T12:30:21.741Z,1.84
2022-09-02T12:31:23.699Z,1.52
2022-09-02T12:32:23.039Z,1.84
2022-09-02T12:33:24.114Z,1.87
2022-09-02T12:34:24.245Z,1.84
2022-09-02T12:35:24.895Z,1.87
2022-09-02T12:36:24.704Z,1.84
2022-09-02T12:37:25.567Z,1.80
2022-09-02T12:38:27.042Z,1.80
2022-09-02T12:39:27.210Z,1.80
2022-09-02T12:40:31.333Z,2.01
2022-09-02T12:41:28.656Z,1.87
2022-09-02T12:42:29.200Z,1.59
2022-09-02T12:43:31.095Z,1.77
2022-09-02T12:44:30.188Z,1.84
2022-09-02T12:45:30.580Z,1.84
2022-09-02T12:46:31.052Z,1.84
2022-09-02T12:47:31.233Z,1.80
2022-09-02T12:48:38.428Z,1.80
2022-09-02T12:49:32.505Z,1.84
2022-09-02T12:50:33.305Z,1.84
2022-09-02T12:50:43.832Z,1.77
2022-09-02T12:51:44.664Z,1.80
2022-09-02T12:52:46.008Z,1.80
2022-09-02T12:53:46.312Z,1.80
2022-09-02T12:54:45.852Z,1.77
2022-09-02T12:55:47.069Z,1.80
2022-09-02T12:56:47.059Z,1.77
2022-09-02T13:00:28.860Z,1.73
2022-09-02T13:01:29.683Z,1.69
2022-09-02T13:02:30.359Z,1.30
2022-09-02T13:03:29.594Z,1.66
2022-09-02T13:04:30.339Z,1.69
2022-09-02T13:05:32.169Z,1.66
2022-09-02T13:06:31.747Z,1.66
2022-09-02T13:07:33.390Z,1.66
2022-09-02T13:08:33.118Z,1.62
2022-09-02T13:09:34.733Z,1.62
2022-09-02T13:10:35.355Z,1.59
2022-09-02T13:11:36.224Z,1.27
2022-09-02T13:12:36.581Z,1.62
2022-09-02T13:13:37.591Z,1.62
2022-09-02T13:14:37.917Z,1.59
2022-09-02T13:14:46.583Z,1.62
2022-09-02T13:15:46.744Z,1.59
2022-09-02T13:16:47.137Z,1.62